sensor_id;sensor_type;location;lat;lon;timestamp;temperature;humidity
4406;DHT22;2216;53.806;11.598;2023-07-29T00:00:45;16.80;60.20
4406;DHT22;2216;53.806;11.598;2023-07-29T00:03:11;16.80;60.30
4406;DHT22;2216;53.806;11.598;2023-07-29T00:05:37;16.80;60.30
4406;DHT22;2216;53.806;11.598;2023-07-29T00:08:03;16.80;60.30
4406;DHT22;2216;53.806;11.598;2023-07-29T00:10:32;16.80;60.30
4406;DHT22;2216;53.806;11.598;2023-07-29T00:12:58;16.70;60.30
4406;DHT22;2216;53.806;11.598;2023-07-29T00:15:24;16.70;60.40
4406;DHT22;2216;53.806;11.598;2023-07-29T00:17:50;16.70;60.40
4406;DHT22;2216;53.806;11.598;2023-07-29T00:20:15;16.70;60.40
4406;DHT22;2216;53.806;11.598;2023-07-29T00:22:41;16.80;60.50
4406;DHT22;2216;53.806;11.598;2023-07-29T00:25:07;16.80;60.50
4406;DHT22;2216;53.806;11.598;2023-07-29T00:27:33;16.80;60.50
4406;DHT22;2216;53.806;11.598;2023-07-29T00:29:58;16.80;60.50
4406;DHT22;2216;53.806;11.598;2023-07-29T00:32:24;16.70;60.50
4406;DHT22;2216;53.806;11.598;2023-07-29T00:34:50;16.80;60.50
4406;DHT22;2216;53.806;11.598;2023-07-29T00:37:16;16.70;60.40
4406;DHT22;2216;53.806;11.598;2023-07-29T00:39:42;16.70;60.50
4406;DHT22;2216;53.806;11.598;2023-07-29T00:42:08;16.80;60.60
4406;DHT22;2216;53.806;11.598;2023-07-29T00:44:34;16.70;60.60
4406;DHT22;2216;53.806;11.598;2023-07-29T00:47:00;16.80;60.70
4406;DHT22;2216;53.806;11.598;2023-07-29T00:49:28;16.80;60.70
4406;DHT22;2216;53.806;11.598;2023-07-29T00:51:54;16.80;60.80
4406;DHT22;2216;53.806;11.598;2023-07-29T00:54:20;16.80;60.80
4406;DHT22;2216;53.806;11.598;2023-07-29T00:56:45;16.80;60.70
4406;DHT22;2216;53.806;11.598;2023-07-29T00:59:11;16.90;60.80
4406;DHT22;2216;53.806;11.598;2023-07-29T01:01:37;16.90;60.80
4406;DHT22;2216;53.806;11.598;2023-07-29T01:04:03;17.00;60.90
4406;DHT22;2216;53.806;11.598;2023-07-29T01:09:20;17.00;60.90
4406;DHT22;2216;53.806;11.598;2023-07-29T01:12:12;17.00;60.90
4406;DHT22;2216;53.806;11.598;2023-07-29T01:14:55;17.00;60.90
4406;DHT22;2216;53.806;11.598;2023-07-29T01:17:49;17.10;60.90
4406;DHT22;2216;53.806;11.598;2023-07-29T01:20:19;17.10;60.90
4406;DHT22;2216;53.806;11.598;2023-07-29T01:22:46;17.20;60.90
4406;DHT22;2216;53.806;11.598;2023-07-29T01:25:15;17.20;61.00
4406;DHT22;2216;53.806;11.598;2023-07-29T01:27:42;17.20;61.00
4406;DHT22;2216;53.806;11.598;2023-07-29T01:30:10;17.20;61.00
4406;DHT22;2216;53.806;11.598;2023-07-29T01:32:37;17.30;61.00
4406;DHT22;2216;53.806;11.598;2023-07-29T01:35:22;17.30;60.90
4406;DHT22;2216;53.806;11.598;2023-07-29T01:37:55;17.30;61.00
4406;DHT22;2216;53.806;11.598;2023-07-29T01:40:23;17.30;60.90
4406;DHT22;2216;53.806;11.598;2023-07-29T01:42:52;17.30;60.80
4406;DHT22;2216;53.806;11.598;2023-07-29T01:45:18;17.40;60.90
4406;DHT22;2216;53.806;11.598;2023-07-29T01:47:43;17.40;60.90
4406;DHT22;2216;53.806;11.598;2023-07-29T01:50:09;17.40;60.90
4406;DHT22;2216;53.806;11.598;2023-07-29T01:52:35;17.40;60.90
4406;DHT22;2216;53.806;11.598;2023-07-29T01:55:02;17.40;60.90
4406;DHT22;2216;53.806;11.598;2023-07-29T01:57:27;17.40;60.90
4406;DHT22;2216;53.806;11.598;2023-07-29T01:59:53;17.40;60.90
4406;DHT22;2216;53.806;11.598;2023-07-29T02:02:19;17.50;61.00
4406;DHT22;2216;53.806;11.598;2023-07-29T02:04:44;17.50;61.00
4406;DHT22;2216;53.806;11.598;2023-07-29T02:07:13;17.50;61.00
4406;DHT22;2216;53.806;11.598;2023-07-29T02:09:39;17.50;61.00
4406;DHT22;2216;53.806;11.598;2023-07-29T02:12:05;17.50;61.00
4406;DHT22;2216;53.806;11.598;2023-07-29T02:14:32;17.60;61.10
4406;DHT22;2216;53.806;11.598;2023-07-29T02:16:58;17.60;61.00
4406;DHT22;2216;53.806;11.598;2023-07-29T02:19:23;17.60;61.00
4406;DHT22;2216;53.806;11.598;2023-07-29T02:21:49;17.60;60.90
4406;DHT22;2216;53.806;11.598;2023-07-29T02:24:15;17.60;61.00
4406;DHT22;2216;53.806;11.598;2023-07-29T02:26:41;17.60;61.00
4406;DHT22;2216;53.806;11.598;2023-07-29T02:29:07;17.60;61.00
4406;DHT22;2216;53.806;11.598;2023-07-29T02:31:33;17.60;61.00
4406;DHT22;2216;53.806;11.598;2023-07-29T02:34:00;17.70;61.00
4406;DHT22;2216;53.806;11.598;2023-07-29T02:36:25;17.60;61.00
4406;DHT22;2216;53.806;11.598;2023-07-29T02:38:51;17.70;61.10
4406;DHT22;2216;53.806;11.598;2023-07-29T02:41:17;17.70;61.00
4406;DHT22;2216;53.806;11.598;2023-07-29T02:43:43;17.70;60.90
4406;DHT22;2216;53.806;11.598;2023-07-29T02:46:13;17.70;61.70
4406;DHT22;2216;53.806;11.598;2023-07-29T02:48:38;17.60;60.80
4406;DHT22;2216;53.806;11.598;2023-07-29T02:51:04;17.60;60.80
4406;DHT22;2216;53.806;11.598;2023-07-29T02:53:30;17.70;60.90
4406;DHT22;2216;53.806;11.598;2023-07-29T02:55:55;17.60;60.90
4406;DHT22;2216;53.806;11.598;2023-07-29T02:58:21;17.60;60.90
4406;DHT22;2216;53.806;11.598;2023-07-29T03:00:47;17.70;61.00
4406;DHT22;2216;53.806;11.598;2023-07-29T03:03:14;17.60;60.90
4406;DHT22;2216;53.806;11.598;2023-07-29T03:05:39;17.60;60.90
4406;DHT22;2216;53.806;11.598;2023-07-29T03:08:05;17.60;60.90
4406;DHT22;2216;53.806;11.598;2023-07-29T03:10:31;17.50;60.90
4406;DHT22;2216;53.806;11.598;2023-07-29T03:12:57;17.50;60.80
4406;DHT22;2216;53.806;11.598;2023-07-29T03:15:26;17.50;60.90
4406;DHT22;2216;53.806;11.598;2023-07-29T03:17:52;17.50;60.90
4406;DHT22;2216;53.806;11.598;2023-07-29T03:20:19;17.50;60.90
4406;DHT22;2216;53.806;11.598;2023-07-29T03:22:45;17.50;61.00
4406;DHT22;2216;53.806;11.598;2023-07-29T03:25:11;17.40;60.90
4406;DHT22;2216;53.806;11.598;2023-07-29T03:27:37;17.40;60.90
4406;DHT22;2216;53.806;11.598;2023-07-29T03:30:03;17.40;61.00
4406;DHT22;2216;53.806;11.598;2023-07-29T03:32:29;17.40;61.00
4406;DHT22;2216;53.806;11.598;2023-07-29T03:34:55;17.40;61.00
4406;DHT22;2216;53.806;11.598;2023-07-29T03:37:21;17.30;61.00
4406;DHT22;2216;53.806;11.598;2023-07-29T03:39:47;17.30;61.10
4406;DHT22;2216;53.806;11.598;2023-07-29T03:42:12;17.30;61.10
4406;DHT22;2216;53.806;11.598;2023-07-29T03:44:38;17.30;61.10
4406;DHT22;2216;53.806;11.598;2023-07-29T03:47:06;17.30;61.20
4406;DHT22;2216;53.806;11.598;2023-07-29T03:49:33;17.30;61.20
4406;DHT22;2216;53.806;11.598;2023-07-29T03:51:58;17.30;61.20
4406;DHT22;2216;53.806;11.598;2023-07-29T03:54:24;17.30;61.30
4406;DHT22;2216;53.806;11.598;2023-07-29T03:56:50;17.30;61.30
4406;DHT22;2216;53.806;11.598;2023-07-29T03:59:17;17.30;61.30
4406;DHT22;2216;53.806;11.598;2023-07-29T04:01:42;17.30;61.40
4406;DHT22;2216;53.806;11.598;2023-07-29T04:04:08;17.40;61.60
4406;DHT22;2216;53.806;11.598;2023-07-29T04:06:34;17.40;61.70
4406;DHT22;2216;53.806;11.598;2023-07-29T04:09:00;17.40;61.70
4406;DHT22;2216;53.806;11.598;2023-07-29T04:11:26;17.40;61.70
4406;DHT22;2216;53.806;11.598;2023-07-29T04:13:51;17.50;61.80
4406;DHT22;2216;53.806;11.598;2023-07-29T04:16:17;17.50;61.80
4406;DHT22;2216;53.806;11.598;2023-07-29T04:18:43;17.50;61.80
4406;DHT22;2216;53.806;11.598;2023-07-29T04:21:09;17.40;61.80
4406;DHT22;2216;53.806;11.598;2023-07-29T04:23:34;17.60;61.90
4406;DHT22;2216;53.806;11.598;2023-07-29T04:26:00;17.60;61.90
4406;DHT22;2216;53.806;11.598;2023-07-29T04:28:26;17.70;62.00
4406;DHT22;2216;53.806;11.598;2023-07-29T04:30:52;17.70;62.00
4406;DHT22;2216;53.806;11.598;2023-07-29T04:33:17;17.80;62.10
4406;DHT22;2216;53.806;11.598;2023-07-29T04:35:43;17.80;62.00
4406;DHT22;2216;53.806;11.598;2023-07-29T04:38:09;17.80;62.00
4406;DHT22;2216;53.806;11.598;2023-07-29T04:40:35;17.90;62.00
4406;DHT22;2216;53.806;11.598;2023-07-29T04:43:01;17.90;61.90
4406;DHT22;2216;53.806;11.598;2023-07-29T04:45:30;17.90;61.90
4406;DHT22;2216;53.806;11.598;2023-07-29T04:47:56;18.20;62.10
4406;DHT22;2216;53.806;11.598;2023-07-29T04:50:23;18.00;61.90
4406;DHT22;2216;53.806;11.598;2023-07-29T04:52:48;18.00;61.90
4406;DHT22;2216;53.806;11.598;2023-07-29T04:55:14;18.10;62.00
4406;DHT22;2216;53.806;11.598;2023-07-29T04:57:40;18.10;61.90
4406;DHT22;2216;53.806;11.598;2023-07-29T05:00:06;18.20;62.00
4406;DHT22;2216;53.806;11.598;2023-07-29T05:02:32;18.20;62.00
4406;DHT22;2216;53.806;11.598;2023-07-29T05:04:58;18.20;62.10
4406;DHT22;2216;53.806;11.598;2023-07-29T05:07:23;18.20;62.10
4406;DHT22;2216;53.806;11.598;2023-07-29T05:09:49;18.20;62.00
4406;DHT22;2216;53.806;11.598;2023-07-29T05:12:15;18.30;62.20
4406;DHT22;2216;53.806;11.598;2023-07-29T05:14:40;18.30;62.10
4406;DHT22;2216;53.806;11.598;2023-07-29T05:17:06;18.40;62.30
4406;DHT22;2216;53.806;11.598;2023-07-29T05:19:32;18.40;62.20
4406;DHT22;2216;53.806;11.598;2023-07-29T05:21:58;18.40;62.20
4406;DHT22;2216;53.806;11.598;2023-07-29T05:24:23;18.40;62.50
4406;DHT22;2216;53.806;11.598;2023-07-29T05:26:49;18.50;62.40
4406;DHT22;2216;53.806;11.598;2023-07-29T05:29:15;18.50;62.40
4406;DHT22;2216;53.806;11.598;2023-07-29T05:31:41;18.60;62.60
4406;DHT22;2216;53.806;11.598;2023-07-29T05:34:06;18.60;62.60
4406;DHT22;2216;53.806;11.598;2023-07-29T05:36:32;18.70;62.70
4406;DHT22;2216;53.806;11.598;2023-07-29T05:38:58;18.80;62.80
4406;DHT22;2216;53.806;11.598;2023-07-29T05:41:24;18.90;62.90
4406;DHT22;2216;53.806;11.598;2023-07-29T05:43:52;18.90;62.60
4406;DHT22;2216;53.806;11.598;2023-07-29T05:46:18;19.00;62.70
4406;DHT22;2216;53.806;11.598;2023-07-29T05:48:44;19.00;62.60
4406;DHT22;2216;53.806;11.598;2023-07-29T05:51:09;19.10;62.60
4406;DHT22;2216;53.806;11.598;2023-07-29T05:53:35;19.10;62.60
4406;DHT22;2216;53.806;11.598;2023-07-29T05:56:01;19.20;62.60
4406;DHT22;2216;53.806;11.598;2023-07-29T05:58:26;19.30;62.80
4406;DHT22;2216;53.806;11.598;2023-07-29T06:00:52;19.30;62.70
4406;DHT22;2216;53.806;11.598;2023-07-29T06:03:18;19.40;62.70
4406;DHT22;2216;53.806;11.598;2023-07-29T06:05:43;19.50;62.80
4406;DHT22;2216;53.806;11.598;2023-07-29T06:08:09;19.50;63.30
4406;DHT22;2216;53.806;11.598;2023-07-29T06:10:35;19.50;62.90
4406;DHT22;2216;53.806;11.598;2023-07-29T06:13:00;19.60;63.00
4406;DHT22;2216;53.806;11.598;2023-07-29T06:15:26;19.60;63.00
4406;DHT22;2216;53.806;11.598;2023-07-29T06:17:52;19.70;63.10
4406;DHT22;2216;53.806;11.598;2023-07-29T06:20:17;19.70;63.30
4406;DHT22;2216;53.806;11.598;2023-07-29T06:22:43;19.80;63.50
4406;DHT22;2216;53.806;11.598;2023-07-29T06:25:09;19.90;63.70
4406;DHT22;2216;53.806;11.598;2023-07-29T06:27:34;20.00;63.60
4406;DHT22;2216;53.806;11.598;2023-07-29T06:30:00;20.10;63.70
4406;DHT22;2216;53.806;11.598;2023-07-29T06:32:26;20.20;64.00
4406;DHT22;2216;53.806;11.598;2023-07-29T06:34:52;20.30;63.60
4406;DHT22;2216;53.806;11.598;2023-07-29T06:37:19;20.30;63.30
4406;DHT22;2216;53.806;11.598;2023-07-29T06:39:45;20.40;63.20
4406;DHT22;2216;53.806;11.598;2023-07-29T06:42:11;20.40;63.30
4406;DHT22;2216;53.806;11.598;2023-07-29T06:44:37;20.50;63.40
4406;DHT22;2216;53.806;11.598;2023-07-29T06:47:02;20.50;63.20
4406;DHT22;2216;53.806;11.598;2023-07-29T06:49:28;20.60;63.10
4406;DHT22;2216;53.806;11.598;2023-07-29T06:51:54;20.60;63.20
4406;DHT22;2216;53.806;11.598;2023-07-29T06:54:24;20.70;63.10
4406;DHT22;2216;53.806;11.598;2023-07-29T06:56:51;20.80;63.20
4406;DHT22;2216;53.806;11.598;2023-07-29T06:59:17;20.80;63.20
4406;DHT22;2216;53.806;11.598;2023-07-29T07:01:44;20.90;63.20
4406;DHT22;2216;53.806;11.598;2023-07-29T07:04:10;21.00;63.50
4406;DHT22;2216;53.806;11.598;2023-07-29T07:06:35;21.00;63.40
4406;DHT22;2216;53.806;11.598;2023-07-29T07:09:01;21.20;63.70
4406;DHT22;2216;53.806;11.598;2023-07-29T07:11:27;21.30;63.70
4406;DHT22;2216;53.806;11.598;2023-07-29T07:13:52;21.30;63.70
4406;DHT22;2216;53.806;11.598;2023-07-29T07:16:18;21.50;63.70
4406;DHT22;2216;53.806;11.598;2023-07-29T07:18:44;21.60;63.50
4406;DHT22;2216;53.806;11.598;2023-07-29T07:21:09;21.70;63.50
4406;DHT22;2216;53.806;11.598;2023-07-29T07:23:35;21.80;63.60
4406;DHT22;2216;53.806;11.598;2023-07-29T07:26:01;22.00;63.70
4406;DHT22;2216;53.806;11.598;2023-07-29T07:28:27;22.10;63.60
4406;DHT22;2216;53.806;11.598;2023-07-29T07:30:53;22.20;63.50
4406;DHT22;2216;53.806;11.598;2023-07-29T07:33:21;22.30;63.40
4406;DHT22;2216;53.806;11.598;2023-07-29T07:35:47;22.40;63.40
4406;DHT22;2216;53.806;11.598;2023-07-29T07:38:13;22.50;63.20
4406;DHT22;2216;53.806;11.598;2023-07-29T07:40:38;22.60;63.10
4406;DHT22;2216;53.806;11.598;2023-07-29T07:43:04;22.70;62.80
4406;DHT22;2216;53.806;11.598;2023-07-29T07:45:32;22.70;62.70
4406;DHT22;2216;53.806;11.598;2023-07-29T07:47:58;22.70;62.60
4406;DHT22;2216;53.806;11.598;2023-07-29T07:50:24;22.80;62.50
4406;DHT22;2216;53.806;11.598;2023-07-29T07:52:50;22.70;62.30
4406;DHT22;2216;53.806;11.598;2023-07-29T07:55:15;22.80;62.60
4406;DHT22;2216;53.806;11.598;2023-07-29T07:57:41;22.80;62.40
4406;DHT22;2216;53.806;11.598;2023-07-29T08:00:07;22.80;62.40
4406;DHT22;2216;53.806;11.598;2023-07-29T08:02:33;22.80;62.50
4406;DHT22;2216;53.806;11.598;2023-07-29T08:04:59;22.80;62.80
4406;DHT22;2216;53.806;11.598;2023-07-29T08:07:24;23.00;63.20
4406;DHT22;2216;53.806;11.598;2023-07-29T08:09:50;23.10;63.50
4406;DHT22;2216;53.806;11.598;2023-07-29T08:12:16;23.30;63.30
4406;DHT22;2216;53.806;11.598;2023-07-29T08:14:41;23.40;63.10
4406;DHT22;2216;53.806;11.598;2023-07-29T08:17:07;23.50;63.10
4406;DHT22;2216;53.806;11.598;2023-07-29T08:19:33;23.60;62.90
4406;DHT22;2216;53.806;11.598;2023-07-29T08:22:02;23.70;63.10
4406;DHT22;2216;53.806;11.598;2023-07-29T08:24:28;23.80;62.80
4406;DHT22;2216;53.806;11.598;2023-07-29T08:26:54;23.90;62.70
4406;DHT22;2216;53.806;11.598;2023-07-29T08:29:20;23.90;62.40
4406;DHT22;2216;53.806;11.598;2023-07-29T08:31:45;24.00;62.30
4406;DHT22;2216;53.806;11.598;2023-07-29T08:34:11;24.00;62.30
4406;DHT22;2216;53.806;11.598;2023-07-29T08:36:37;24.10;62.60
4406;DHT22;2216;53.806;11.598;2023-07-29T08:39:02;24.20;62.50
4406;DHT22;2216;53.806;11.598;2023-07-29T08:41:37;24.20;62.30
4406;DHT22;2216;53.806;11.598;2023-07-29T08:46:42;24.40;62.40
4406;DHT22;2216;53.806;11.598;2023-07-29T08:49:08;24.50;62.60
4406;DHT22;2216;53.806;11.598;2023-07-29T08:51:37;24.50;62.30
4406;DHT22;2216;53.806;11.598;2023-07-29T08:54:04;24.60;62.10
4406;DHT22;2216;53.806;11.598;2023-07-29T08:56:30;24.70;62.20
4406;DHT22;2216;53.806;11.598;2023-07-29T08:58:56;24.70;62.20
4406;DHT22;2216;53.806;11.598;2023-07-29T09:01:21;24.70;62.00
4406;DHT22;2216;53.806;11.598;2023-07-29T09:03:47;24.80;62.00
4406;DHT22;2216;53.806;11.598;2023-07-29T09:06:14;24.80;62.70
4406;DHT22;2216;53.806;11.598;2023-07-29T09:08:40;24.90;62.00
4406;DHT22;2216;53.806;11.598;2023-07-29T09:11:06;24.90;61.90
4406;DHT22;2216;53.806;11.598;2023-07-29T09:13:33;25.00;61.90
4406;DHT22;2216;53.806;11.598;2023-07-29T09:15:58;25.00;61.80
4406;DHT22;2216;53.806;11.598;2023-07-29T09:18:26;25.10;61.80
4406;DHT22;2216;53.806;11.598;2023-07-29T09:20:53;25.10;61.60
4406;DHT22;2216;53.806;11.598;2023-07-29T09:23:18;25.10;61.40
4406;DHT22;2216;53.806;11.598;2023-07-29T09:25:46;25.00;61.20
4406;DHT22;2216;53.806;11.598;2023-07-29T09:28:14;25.00;61.10
4406;DHT22;2216;53.806;11.598;2023-07-29T09:30:42;24.90;61.20
4406;DHT22;2216;53.806;11.598;2023-07-29T09:33:10;24.90;61.20
4406;DHT22;2216;53.806;11.598;2023-07-29T09:35:37;24.90;61.30
4406;DHT22;2216;53.806;11.598;2023-07-29T09:38:06;24.80;61.20
4406;DHT22;2216;53.806;11.598;2023-07-29T09:40:40;24.80;61.20
4406;DHT22;2216;53.806;11.598;2023-07-29T09:43:08;24.80;61.30
4406;DHT22;2216;53.806;11.598;2023-07-29T09:45:35;24.80;61.60
4406;DHT22;2216;53.806;11.598;2023-07-29T09:48:04;24.80;61.70
4406;DHT22;2216;53.806;11.598;2023-07-29T09:50:35;24.90;62.00
4406;DHT22;2216;53.806;11.598;2023-07-29T09:53:03;25.00;62.00
4406;DHT22;2216;53.806;11.598;2023-07-29T09:55:29;25.10;62.10
4406;DHT22;2216;53.806;11.598;2023-07-29T09:57:59;25.10;61.90
4406;DHT22;2216;53.806;11.598;2023-07-29T10:00:31;25.20;61.90
4406;DHT22;2216;53.806;11.598;2023-07-29T10:02:58;25.30;61.70
4406;DHT22;2216;53.806;11.598;2023-07-29T10:05:28;25.30;61.60
4406;DHT22;2216;53.806;11.598;2023-07-29T10:07:55;25.30;61.60
4406;DHT22;2216;53.806;11.598;2023-07-29T10:10:21;25.30;61.50
4406;DHT22;2216;53.806;11.598;2023-07-29T10:12:47;25.40;61.50
4406;DHT22;2216;53.806;11.598;2023-07-29T10:15:14;25.40;61.50
4406;DHT22;2216;53.806;11.598;2023-07-29T10:17:40;25.40;61.40
4406;DHT22;2216;53.806;11.598;2023-07-29T10:20:08;25.40;61.30
4406;DHT22;2216;53.806;11.598;2023-07-29T10:22:40;25.50;61.40
4406;DHT22;2216;53.806;11.598;2023-07-29T10:25:17;25.50;61.30
4406;DHT22;2216;53.806;11.598;2023-07-29T10:28:01;25.50;61.40
4406;DHT22;2216;53.806;11.598;2023-07-29T10:30:30;25.50;61.30
4406;DHT22;2216;53.806;11.598;2023-07-29T10:32:59;25.60;61.30
4406;DHT22;2216;53.806;11.598;2023-07-29T10:35:28;25.60;61.30
4406;DHT22;2216;53.806;11.598;2023-07-29T10:37:55;25.60;61.30
4406;DHT22;2216;53.806;11.598;2023-07-29T10:40:21;25.60;61.30
4406;DHT22;2216;53.806;11.598;2023-07-29T10:43:10;25.60;61.30
4406;DHT22;2216;53.806;11.598;2023-07-29T10:45:38;25.70;61.20
4406;DHT22;2216;53.806;11.598;2023-07-29T10:48:12;25.70;61.10
4406;DHT22;2216;53.806;11.598;2023-07-29T10:50:39;25.70;61.20
4406;DHT22;2216;53.806;11.598;2023-07-29T10:53:05;25.80;61.30
4406;DHT22;2216;53.806;11.598;2023-07-29T10:55:37;25.80;61.20
4406;DHT22;2216;53.806;11.598;2023-07-29T11:00:32;25.90;61.10
4406;DHT22;2216;53.806;11.598;2023-07-29T11:03:04;25.90;61.00
4406;DHT22;2216;53.806;11.598;2023-07-29T11:05:50;26.00;61.40
4406;DHT22;2216;53.806;11.598;2023-07-29T11:08:18;26.00;61.10
4406;DHT22;2216;53.806;11.598;2023-07-29T11:11:02;26.10;61.10
4406;DHT22;2216;53.806;11.598;2023-07-29T11:13:34;26.00;60.70
4406;DHT22;2216;53.806;11.598;2023-07-29T11:16:02;26.00;60.30
4406;DHT22;2216;53.806;11.598;2023-07-29T11:18:30;25.90;60.00
4406;DHT22;2216;53.806;11.598;2023-07-29T11:20:58;25.70;59.90
4406;DHT22;2216;53.806;11.598;2023-07-29T11:23:28;25.60;59.90
4406;DHT22;2216;53.806;11.598;2023-07-29T11:25:55;25.50;59.80
4406;DHT22;2216;53.806;11.598;2023-07-29T11:28:22;25.30;59.70
4406;DHT22;2216;53.806;11.598;2023-07-29T11:30:49;25.10;59.60
4406;DHT22;2216;53.806;11.598;2023-07-29T11:33:20;24.90;59.70
4406;DHT22;2216;53.806;11.598;2023-07-29T11:35:47;24.70;59.80
4406;DHT22;2216;53.806;11.598;2023-07-29T11:38:17;24.60;60.00
4406;DHT22;2216;53.806;11.598;2023-07-29T11:40:43;24.50;60.30
4406;DHT22;2216;53.806;11.598;2023-07-29T11:43:19;24.40;60.50
4406;DHT22;2216;53.806;11.598;2023-07-29T11:45:44;24.30;60.70
4406;DHT22;2216;53.806;11.598;2023-07-29T11:48:10;24.30;61.00
4406;DHT22;2216;53.806;11.598;2023-07-29T11:50:36;24.30;61.10
4406;DHT22;2216;53.806;11.598;2023-07-29T11:53:02;24.40;61.40
4406;DHT22;2216;53.806;11.598;2023-07-29T11:55:28;24.40;61.40
4406;DHT22;2216;53.806;11.598;2023-07-29T11:57:54;24.40;61.40
4406;DHT22;2216;53.806;11.598;2023-07-29T12:00:20;24.50;61.40
4406;DHT22;2216;53.806;11.598;2023-07-29T12:02:47;24.50;61.40
4406;DHT22;2216;53.806;11.598;2023-07-29T12:05:14;24.50;61.30
4406;DHT22;2216;53.806;11.598;2023-07-29T12:07:42;24.50;61.30
4406;DHT22;2216;53.806;11.598;2023-07-29T12:10:09;24.50;61.20
4406;DHT22;2216;53.806;11.598;2023-07-29T12:12:48;24.50;61.30
4406;DHT22;2216;53.806;11.598;2023-07-29T12:15:24;24.50;61.30
4406;DHT22;2216;53.806;11.598;2023-07-29T12:17:53;24.50;61.30
4406;DHT22;2216;53.806;11.598;2023-07-29T12:20:21;24.50;61.20
4406;DHT22;2216;53.806;11.598;2023-07-29T12:22:58;24.50;61.10
4406;DHT22;2216;53.806;11.598;2023-07-29T12:25:28;24.50;61.10
4406;DHT22;2216;53.806;11.598;2023-07-29T12:27:54;24.50;61.00
4406;DHT22;2216;53.806;11.598;2023-07-29T12:30:21;24.40;61.00
4406;DHT22;2216;53.806;11.598;2023-07-29T12:32:47;24.40;60.90
4406;DHT22;2216;53.806;11.598;2023-07-29T12:35:13;24.40;61.00
4406;DHT22;2216;53.806;11.598;2023-07-29T12:37:39;24.30;60.80
4406;DHT22;2216;53.806;11.598;2023-07-29T12:40:29;24.30;60.90
4406;DHT22;2216;53.806;11.598;2023-07-29T12:42:55;24.10;60.70
4406;DHT22;2216;53.806;11.598;2023-07-29T12:45:21;24.10;60.70
4406;DHT22;2216;53.806;11.598;2023-07-29T12:47:51;24.10;60.90
4406;DHT22;2216;53.806;11.598;2023-07-29T12:50:17;24.00;61.00
4406;DHT22;2216;53.806;11.598;2023-07-29T12:52:43;23.90;61.10
4406;DHT22;2216;53.806;11.598;2023-07-29T12:55:08;24.00;61.50
4406;DHT22;2216;53.806;11.598;2023-07-29T12:57:38;24.00;61.70
4406;DHT22;2216;53.806;11.598;2023-07-29T13:00:07;24.10;61.70
4406;DHT22;2216;53.806;11.598;2023-07-29T13:02:34;24.00;61.60
4406;DHT22;2216;53.806;11.598;2023-07-29T13:05:00;24.10;61.70
4406;DHT22;2216;53.806;11.598;2023-07-29T13:07:25;24.10;61.70
4406;DHT22;2216;53.806;11.598;2023-07-29T13:09:51;24.10;61.60
4406;DHT22;2216;53.806;11.598;2023-07-29T13:12:16;24.10;61.60
4406;DHT22;2216;53.806;11.598;2023-07-29T13:14:42;24.20;61.60
4406;DHT22;2216;53.806;11.598;2023-07-29T13:17:08;24.20;61.60
4406;DHT22;2216;53.806;11.598;2023-07-29T13:19:33;24.20;61.60
4406;DHT22;2216;53.806;11.598;2023-07-29T13:21:59;24.20;61.60
4406;DHT22;2216;53.806;11.598;2023-07-29T13:24:25;24.30;61.70
4406;DHT22;2216;53.806;11.598;2023-07-29T13:26:50;24.30;61.50
4406;DHT22;2216;53.806;11.598;2023-07-29T13:29:16;24.30;61.50
4406;DHT22;2216;53.806;11.598;2023-07-29T13:31:42;24.40;61.60
4406;DHT22;2216;53.806;11.598;2023-07-29T13:34:07;24.40;61.70
4406;DHT22;2216;53.806;11.598;2023-07-29T13:36:33;24.50;61.80
4406;DHT22;2216;53.806;11.598;2023-07-29T13:38:59;24.50;61.80
4406;DHT22;2216;53.806;11.598;2023-07-29T13:41:24;24.60;61.90
4406;DHT22;2216;53.806;11.598;2023-07-29T13:43:50;24.70;62.00
4406;DHT22;2216;53.806;11.598;2023-07-29T13:46:15;24.80;62.20
4406;DHT22;2216;53.806;11.598;2023-07-29T13:48:41;25.00;62.30
4406;DHT22;2216;53.806;11.598;2023-07-29T13:51:07;25.10;62.30
4406;DHT22;2216;53.806;11.598;2023-07-29T13:53:32;25.20;62.20
4406;DHT22;2216;53.806;11.598;2023-07-29T13:55:58;25.40;62.30
4406;DHT22;2216;53.806;11.598;2023-07-29T13:58:24;25.60;62.50
4406;DHT22;2216;53.806;11.598;2023-07-29T14:00:51;25.80;62.60
4406;DHT22;2216;53.806;11.598;2023-07-29T14:03:17;26.00;62.70
4406;DHT22;2216;53.806;11.598;2023-07-29T14:05:42;26.20;62.70
4406;DHT22;2216;53.806;11.598;2023-07-29T14:08:08;26.40;62.50
4406;DHT22;2216;53.806;11.598;2023-07-29T14:10:33;26.60;62.30
4406;DHT22;2216;53.806;11.598;2023-07-29T14:12:59;26.80;62.20
4406;DHT22;2216;53.806;11.598;2023-07-29T14:15:25;26.80;61.90
4406;DHT22;2216;53.806;11.598;2023-07-29T14:17:50;27.10;61.80
4406;DHT22;2216;53.806;11.598;2023-07-29T14:20:16;27.30;61.50
4406;DHT22;2216;53.806;11.598;2023-07-29T14:22:42;27.40;61.40
4406;DHT22;2216;53.806;11.598;2023-07-29T14:25:08;27.40;61.20
4406;DHT22;2216;53.806;11.598;2023-07-29T14:27:33;27.50;61.10
4406;DHT22;2216;53.806;11.598;2023-07-29T14:29:59;27.60;61.10
4406;DHT22;2216;53.806;11.598;2023-07-29T14:32:25;27.60;60.90
4406;DHT22;2216;53.806;11.598;2023-07-29T14:34:50;27.60;60.60
4406;DHT22;2216;53.806;11.598;2023-07-29T14:37:17;27.50;60.20
4406;DHT22;2216;53.806;11.598;2023-07-29T14:39:42;27.50;60.00
4406;DHT22;2216;53.806;11.598;2023-07-29T14:42:08;27.30;59.80
4406;DHT22;2216;53.806;11.598;2023-07-29T14:44:34;27.20;59.70
4406;DHT22;2216;53.806;11.598;2023-07-29T14:46:59;27.10;59.80
4406;DHT22;2216;53.806;11.598;2023-07-29T14:49:25;27.00;59.80
4406;DHT22;2216;53.806;11.598;2023-07-29T14:51:51;26.90;60.00
4406;DHT22;2216;53.806;11.598;2023-07-29T14:54:16;27.00;60.30
4406;DHT22;2216;53.806;11.598;2023-07-29T14:56:42;26.90;60.30
4406;DHT22;2216;53.806;11.598;2023-07-29T14:59:08;26.90;60.30
4406;DHT22;2216;53.806;11.598;2023-07-29T15:01:33;26.90;60.50
4406;DHT22;2216;53.806;11.598;2023-07-29T15:03:59;26.90;60.40
4406;DHT22;2216;53.806;11.598;2023-07-29T15:06:25;26.90;60.30
4406;DHT22;2216;53.806;11.598;2023-07-29T15:08:50;26.90;60.10
4406;DHT22;2216;53.806;11.598;2023-07-29T15:11:16;26.80;60.00
4406;DHT22;2216;53.806;11.598;2023-07-29T15:13:42;26.70;59.90
4406;DHT22;2216;53.806;11.598;2023-07-29T15:16:07;26.70;59.90
4406;DHT22;2216;53.806;11.598;2023-07-29T15:18:33;26.60;60.00
4406;DHT22;2216;53.806;11.598;2023-07-29T15:21:00;26.60;60.00
4406;DHT22;2216;53.806;11.598;2023-07-29T15:23:27;26.60;60.00
4406;DHT22;2216;53.806;11.598;2023-07-29T15:25:53;26.50;60.00
4406;DHT22;2216;53.806;11.598;2023-07-29T15:28:19;26.30;59.90
4406;DHT22;2216;53.806;11.598;2023-07-29T15:30:44;26.50;60.10
4406;DHT22;2216;53.806;11.598;2023-07-29T15:33:10;26.40;60.00
4406;DHT22;2216;53.806;11.598;2023-07-29T15:35:37;26.40;60.00
4406;DHT22;2216;53.806;11.598;2023-07-29T15:38:06;26.40;60.30
4406;DHT22;2216;53.806;11.598;2023-07-29T15:40:32;26.40;60.20
4406;DHT22;2216;53.806;11.598;2023-07-29T15:42:58;26.40;60.20
4406;DHT22;2216;53.806;11.598;2023-07-29T15:45:24;26.30;60.10
4406;DHT22;2216;53.806;11.598;2023-07-29T15:47:49;26.30;60.00
4406;DHT22;2216;53.806;11.598;2023-07-29T15:50:15;26.20;60.00